createdAt,value
2017-11-07T00:01:49.178Z,17.87
2017-11-07T00:04:19.360Z,19.57
2017-11-07T00:06:49.315Z,16.60
2017-11-07T00:09:19.488Z,18.87
2017-11-07T00:11:49.354Z,16.97
2017-11-07T00:14:19.220Z,14.53
2017-11-07T00:16:49.369Z,15.40
2017-11-07T00:19:19.327Z,15.80
2017-11-07T00:21:49.591Z,14.10
2017-11-07T00:24:19.600Z,16.53
2017-11-07T00:26:49.815Z,13.80
2017-11-07T00:29:19.684Z,15.17
2017-11-07T00:31:49.570Z,14.77
2017-11-07T00:34:19.433Z,15.33
2017-11-07T00:36:49.313Z,15.00
2017-11-07T00:39:19.167Z,14.17
2017-11-07T00:41:49.027Z,16.73
2017-11-07T00:44:19.222Z,13.63
2017-11-07T00:46:49.063Z,14.37
2017-11-07T00:49:18.932Z,14.97
2017-11-07T00:51:48.789Z,14.40
2017-11-07T00:54:18.937Z,15.10
2017-11-07T00:56:48.812Z,15.23
2017-11-07T00:59:18.957Z,17.77
2017-11-07T01:01:48.811Z,17.13
2017-11-07T01:04:18.696Z,17.47
2017-11-07T01:06:48.526Z,19.70
2017-11-07T01:09:18.390Z,16.40
2017-11-07T01:11:48.507Z,16.20
2017-11-07T01:14:18.410Z,17.40
2017-11-07T01:16:48.272Z,15.83
2017-11-07T01:19:18.397Z,17.13
2017-11-07T01:21:48.257Z,17.40
2017-11-07T01:24:18.155Z,16.87
2017-11-07T01:26:48.014Z,15.80
2017-11-07T01:29:18.146Z,16.23
2017-11-07T01:31:48.007Z,15.67
2017-11-07T01:34:17.907Z,18.57
2017-11-07T01:36:47.774Z,16.37
2017-11-07T01:39:18.155Z,17.17
2017-11-07T01:41:48.002Z,17.90
2017-11-07T01:44:17.953Z,17.03
2017-11-07T01:46:47.813Z,19.30
2017-11-07T01:49:17.942Z,17.60
2017-11-07T01:51:47.825Z,15.73
2017-11-07T01:54:17.934Z,15.13
2017-11-07T01:56:47.793Z,14.60
2017-11-07T01:59:17.912Z,16.20
2017-11-07T02:01:47.756Z,16.30
2017-11-07T02:04:17.715Z,16.63
2017-11-07T02:06:47.578Z,12.47
2017-11-07T02:09:17.844Z,14.87
2017-11-07T02:11:47.706Z,12.70
2017-11-07T02:14:18.111Z,15.67
2017-11-07T02:16:47.968Z,12.90
2017-11-07T02:19:17.950Z,12.90
2017-11-07T02:21:47.777Z,12.70
2017-11-07T02:24:18.051Z,13.80
2017-11-07T02:26:47.906Z,12.23
2017-11-07T02:29:17.796Z,12.63
2017-11-07T02:31:47.664Z,11.40
2017-11-07T02:34:17.927Z,12.47
2017-11-07T02:36:47.821Z,12.30
2017-11-07T02:39:17.726Z,13.93
2017-11-07T02:41:47.709Z,12.43
2017-11-07T02:44:17.973Z,13.20
2017-11-07T02:46:47.817Z,13.53
2017-11-07T02:49:18.007Z,14.73
2017-11-07T02:51:47.850Z,14.30
2017-11-07T02:54:17.782Z,12.03
2017-11-07T02:56:47.633Z,12.70
2017-11-07T02:59:17.768Z,14.23
2017-11-07T03:01:47.645Z,13.37
2017-11-07T03:04:17.583Z,12.90
2017-11-07T03:06:47.439Z,13.13
2017-11-07T03:09:17.355Z,15.60
2017-11-07T03:11:47.205Z,13.27
2017-11-07T03:14:17.072Z,14.67
2017-11-07T03:16:46.951Z,17.10
2017-11-07T03:19:16.810Z,14.33
2017-11-07T03:21:47.100Z,17.53
2017-11-07T03:24:16.940Z,14.80
2017-11-07T03:26:46.819Z,19.30
2017-11-07T03:29:16.670Z,21.00
2017-11-07T03:31:46.877Z,23.17
2017-11-07T03:34:16.966Z,20.40
2017-11-07T03:36:46.849Z,17.17
2017-11-07T03:39:16.702Z,19.13
2017-11-07T03:41:46.919Z,18.83
2017-11-07T03:44:16.805Z,16.50
2017-11-07T03:46:46.694Z,17.70
2017-11-07T03:49:16.559Z,17.77
2017-11-07T03:51:46.774Z,15.87
2017-11-07T03:54:16.723Z,13.20
2017-11-07T03:56:47.010Z,16.00
2017-11-07T03:59:16.872Z,12.97
2017-11-07T04:01:46.759Z,13.57
2017-11-07T04:04:16.635Z,12.23
2017-11-07T04:06:46.782Z,11.60
2017-11-07T04:09:16.644Z,12.90
2017-11-07T04:11:46.534Z,13.27
2017-11-07T04:14:16.381Z,12.10
2017-11-07T04:16:46.248Z,15.60
2017-11-07T04:19:16.106Z,13.90
2017-11-07T04:21:45.976Z,15.70
2017-11-07T04:24:15.863Z,15.00
2017-11-07T04:26:45.715Z,13.73
2017-11-07T04:29:15.615Z,15.83
2017-11-07T04:31:45.468Z,13.70
2017-11-07T04:34:15.338Z,14.93
2017-11-07T04:36:45.207Z,14.10
2017-11-07T04:39:15.062Z,15.77
2017-11-07T04:41:44.964Z,15.40
2017-11-07T04:44:14.812Z,15.80
2017-11-07T04:46:44.976Z,16.03
2017-11-07T04:49:14.902Z,14.33
2017-11-07T04:51:44.782Z,14.33
2017-11-07T04:54:14.624Z,15.00
2017-11-07T04:56:44.830Z,13.53
2017-11-07T04:59:14.682Z,12.33
2017-11-07T05:01:44.887Z,13.57
2017-11-07T05:04:14.754Z,13.80
2017-11-07T05:06:44.633Z,13.20
2017-11-07T05:09:14.506Z,14.90
2017-11-07T05:11:44.387Z,11.83
2017-11-07T05:14:14.262Z,13.50
2017-11-07T05:16:44.119Z,13.57
2017-11-07T05:19:14.270Z,13.60
2017-11-07T05:21:44.131Z,13.80
2017-11-07T05:24:13.999Z,14.60
2017-11-07T05:26:43.854Z,15.63
2017-11-07T05:29:14.150Z,13.00
2017-11-07T05:31:44.010Z,12.50
2017-11-07T05:34:14.161Z,14.07
2017-11-07T05:36:44.019Z,14.27
2017-11-07T05:39:13.891Z,14.67
2017-11-07T05:41:43.769Z,12.37
2017-11-07T05:44:13.647Z,13.43
2017-11-07T05:46:43.547Z,12.00
2017-11-07T05:49:13.428Z,12.70
2017-11-07T05:51:43.275Z,11.03
2017-11-07T05:54:13.177Z,12.50
2017-11-07T05:56:43.049Z,11.70
2017-11-07T05:59:12.902Z,12.30
2017-11-07T06:01:42.805Z,10.17
2017-11-07T06:04:12.665Z,11.77
2017-11-07T06:06:42.604Z,11.13
2017-11-07T06:09:12.473Z,12.07
2017-11-07T06:11:42.348Z,13.73
2017-11-07T06:14:12.210Z,11.00
2017-11-07T06:16:42.111Z,13.07
2017-11-07T06:19:11.993Z,10.07
2017-11-07T06:21:42.426Z,11.83
2017-11-07T06:24:12.753Z,10.47
2017-11-07T06:26:42.833Z,9.30
2017-11-07T06:29:12.719Z,9.33
2017-11-07T06:31:42.591Z,8.67
2017-11-07T06:34:12.813Z,10.17
2017-11-07T06:36:42.650Z,9.00
2017-11-07T06:39:12.842Z,9.03
2017-11-07T06:41:42.706Z,8.80
2017-11-07T06:44:12.882Z,9.70
2017-11-07T06:46:42.743Z,9.30
2017-11-07T06:49:12.628Z,9.00
2017-11-07T06:51:42.480Z,9.97
2017-11-07T06:54:12.347Z,9.50
2017-11-07T06:56:42.204Z,10.00
2017-11-07T06:59:12.071Z,10.50
2017-11-07T07:01:42.265Z,9.17
2017-11-07T07:04:12.142Z,10.07
2017-11-07T07:06:42.301Z,9.73
2017-11-07T07:09:12.177Z,10.80
2017-11-07T07:11:42.654Z,11.20
2017-11-07T07:14:12.514Z,10.27
2017-11-07T07:16:42.679Z,10.93
2017-11-07T07:19:12.561Z,8.63
2017-11-07T07:21:42.449Z,10.20
2017-11-07T07:24:12.347Z,10.37
2017-11-07T07:26:42.205Z,10.10
2017-11-07T07:29:12.089Z,11.80
2017-11-07T07:31:41.973Z,9.97
2017-11-07T07:34:12.299Z,11.73
2017-11-07T07:36:42.138Z,10.70
2017-11-07T07:39:12.261Z,12.47
2017-11-07T07:41:42.108Z,11.10
2017-11-07T07:44:12.258Z,12.80
2017-11-07T07:46:42.117Z,10.70
2017-11-07T07:49:11.995Z,12.20
2017-11-07T07:51:41.915Z,11.10
2017-11-07T07:54:12.103Z,12.40
2017-11-07T07:56:41.962Z,12.10
2017-11-07T07:59:12.123Z,13.00
2017-11-07T08:01:42.030Z,11.73
2017-11-07T08:04:12.254Z,12.30
2017-11-07T08:06:42.094Z,12.80
2017-11-07T08:09:12.294Z,13.87
2017-11-07T08:11:42.165Z,12.10
2017-11-07T08:14:12.057Z,13.33
2017-11-07T08:16:41.946Z,12.50
2017-11-07T08:19:12.087Z,12.90
2017-11-07T08:21:41.934Z,11.53
2017-11-07T08:24:12.074Z,11.90
2017-11-07T08:26:41.926Z,13.17
2017-11-07T08:29:12.119Z,10.03
2017-11-07T08:31:41.987Z,13.30
2017-11-07T08:34:12.153Z,11.30
2017-11-07T08:36:42.020Z,10.17
2017-11-07T08:39:12.288Z,11.87
2017-11-07T08:41:42.151Z,10.20
2017-11-07T08:44:12.409Z,11.63
2017-11-07T08:46:42.271Z,10.40
2017-11-07T08:49:12.442Z,10.73
2017-11-07T08:51:42.351Z,10.13
2017-11-07T08:54:12.583Z,13.30
2017-11-07T08:56:42.432Z,11.80
2017-11-07T08:59:12.309Z,11.33
2017-11-07T09:01:42.158Z,11.83
2017-11-07T09:04:12.007Z,10.00
2017-11-07T09:06:42.251Z,10.73
2017-11-07T09:09:12.093Z,10.77
2017-11-07T09:11:42.066Z,11.30
2017-11-07T09:14:11.902Z,10.20
2017-11-07T09:16:41.808Z,9.70
2017-11-07T09:19:11.674Z,9.87
2017-11-07T09:21:41.804Z,9.20
2017-11-07T09:24:11.675Z,10.70
2017-11-07T09:26:41.657Z,10.20
2017-11-07T09:29:11.499Z,10.00
2017-11-07T09:31:41.397Z,11.17
2017-11-07T09:34:11.361Z,11.50
2017-11-07T09:36:41.232Z,11.53
2017-11-07T09:39:11.499Z,10.60
2017-11-07T09:41:41.502Z,10.47
2017-11-07T09:44:11.802Z,9.77
2017-11-07T09:46:41.653Z,10.60
2017-11-07T09:49:11.806Z,10.37
2017-11-07T09:51:41.667Z,12.27
2017-11-07T09:54:11.938Z,10.33
2017-11-07T09:56:41.794Z,10.53
2017-11-07T09:59:11.936Z,10.47
2017-11-07T10:01:41.816Z,9.90
2017-11-07T10:04:12.106Z,9.60
2017-11-07T10:06:41.953Z,8.73
2017-11-07T10:09:12.149Z,8.83
2017-11-07T10:11:42.000Z,9.03
2017-11-07T10:14:11.860Z,8.67
2017-11-07T10:16:41.722Z,9.00
2017-11-07T10:19:11.882Z,9.60
2017-11-07T10:21:41.719Z,11.37
2017-11-07T10:24:12.037Z,10.17
2017-11-07T10:26:41.896Z,10.53
2017-11-07T10:29:12.174Z,10.00
2017-11-07T10:31:42.027Z,10.70
2017-11-07T10:34:12.194Z,11.20
2017-11-07T10:36:42.078Z,10.50
2017-11-07T10:39:12.213Z,10.53
2017-11-07T10:41:42.071Z,10.47
2017-11-07T10:44:12.273Z,10.97
2017-11-07T10:46:42.184Z,11.50
2017-11-07T10:49:12.385Z,11.60
2017-11-07T10:51:42.230Z,11.87
2017-11-07T10:54:12.390Z,13.87
2017-11-07T10:56:42.234Z,13.17
2017-11-07T10:59:12.452Z,15.80
2017-11-07T11:01:42.355Z,17.10
2017-11-07T11:04:12.611Z,15.30
2017-11-07T11:06:42.464Z,16.90
2017-11-07T11:09:12.385Z,19.50
2017-11-07T11:11:42.258Z,17.17
2017-11-07T11:14:12.290Z,18.90
2017-11-07T11:16:42.173Z,19.03
2017-11-07T11:19:12.037Z,18.70
2017-11-07T11:21:42.222Z,19.13
2017-11-07T11:24:12.088Z,18.53
2017-11-07T11:26:42.346Z,17.37
2017-11-07T11:29:12.217Z,17.17
2017-11-07T11:31:42.096Z,17.40
2017-11-07T11:34:11.973Z,17.40
2017-11-07T11:36:41.898Z,16.10
2017-11-07T11:39:11.776Z,17.17
2017-11-07T11:41:41.669Z,19.37
2017-11-07T11:44:11.529Z,17.10
2017-11-07T11:46:41.466Z,17.80
2017-11-07T11:49:11.399Z,17.37
2017-11-07T11:51:41.312Z,14.60
2017-11-07T11:54:11.275Z,13.47
2017-11-07T11:56:41.189Z,13.50
2017-11-07T11:59:11.219Z,12.37
2017-11-07T12:01:41.122Z,12.00
2017-11-07T12:04:11.006Z,11.30
2017-11-07T12:06:40.879Z,11.23
2017-11-07T12:09:11.074Z,11.70
2017-11-07T12:11:40.981Z,10.00
2017-11-07T12:14:11.134Z,8.13
2017-11-07T12:16:41.042Z,8.83
2017-11-07T12:19:11.372Z,8.00
2017-11-07T12:21:41.251Z,7.57
2017-11-07T12:24:11.158Z,6.73
2017-11-07T12:26:41.017Z,8.00
2017-11-07T12:29:11.111Z,7.10
2017-11-07T12:31:40.946Z,8.47
2017-11-07T12:34:11.131Z,7.30
2017-11-07T12:36:40.988Z,8.47
2017-11-07T12:39:11.230Z,8.10
2017-11-07T12:41:41.113Z,7.50
2017-11-07T12:44:10.981Z,7.70
2017-11-07T12:46:40.848Z,7.30
2017-11-07T12:49:10.862Z,7.80
2017-11-07T12:51:52.487Z,8.20
2017-11-07T12:54:22.410Z,6.73
2017-11-07T12:56:52.335Z,6.87
2017-11-07T12:59:22.565Z,8.40
2017-11-07T13:01:52.455Z,7.10
2017-11-07T13:04:22.383Z,7.20
2017-11-07T13:06:52.801Z,7.37
2017-11-07T13:09:22.679Z,8.30
2017-11-07T13:11:52.763Z,7.20
2017-11-07T13:14:22.711Z,8.57
2017-11-07T13:16:52.954Z,6.80
2017-11-07T13:19:22.977Z,7.70
2017-11-07T13:21:53.230Z,7.53
2017-11-07T13:24:23.075Z,7.03
2017-11-07T13:26:53.211Z,6.70
2017-11-07T13:29:23.056Z,7.00
2017-11-07T13:31:53.194Z,7.30
2017-11-07T13:34:23.045Z,6.80
2017-11-07T13:36:52.925Z,6.40
2017-11-07T13:39:22.781Z,7.10
2017-11-07T13:41:52.633Z,6.87
2017-11-07T13:44:22.565Z,8.50
2017-11-07T13:46:52.741Z,7.07
2017-11-07T13:49:22.641Z,8.20
2017-11-07T13:51:52.890Z,7.37
2017-11-07T13:54:22.967Z,7.53
2017-11-07T13:56:52.874Z,6.73
2017-11-07T13:59:22.738Z,6.27
2017-11-07T14:01:52.951Z,7.13
2017-11-07T14:04:22.890Z,6.40
2017-11-07T14:06:53.230Z,7.27
2017-11-07T14:09:23.094Z,6.43
2017-11-07T14:11:53.322Z,5.60
2017-11-07T14:14:23.167Z,5.83
2017-11-07T14:16:53.051Z,7.80
2017-11-07T14:19:22.975Z,6.10
2017-11-07T14:21:52.862Z,7.90
2017-11-07T14:24:22.725Z,6.53
2017-11-07T14:26:52.907Z,6.60
2017-11-07T14:29:22.948Z,6.23
2017-11-07T14:31:53.030Z,5.73
2017-11-07T14:34:22.876Z,6.10
2017-11-07T14:36:53.114Z,6.47
2017-11-07T14:39:22.987Z,6.63
2017-11-07T14:41:53.206Z,6.70
2017-11-07T14:44:23.172Z,7.00
2017-11-07T14:46:53.294Z,6.30
2017-11-07T14:49:23.146Z,8.40
2017-11-07T14:51:53.385Z,7.37
2017-11-07T14:54:23.270Z,7.20
2017-11-07T14:56:53.473Z,7.30
2017-11-07T14:59:23.352Z,6.60
2017-11-07T15:01:53.508Z,7.93
2017-11-07T15:04:23.371Z,7.63
2017-11-07T15:06:53.282Z,7.87
2017-11-07T15:09:23.181Z,7.00
2017-11-07T15:11:53.022Z,6.60
2017-11-07T15:14:23.240Z,5.50
2017-11-07T15:16:53.173Z,6.67
2017-11-07T15:19:23.354Z,7.37
2017-11-07T15:21:53.256Z,6.87
2017-11-07T15:24:23.535Z,6.77
2017-11-07T15:26:53.386Z,7.47
2017-11-07T15:29:23.275Z,7.30
2017-11-07T15:31:53.146Z,7.03
2017-11-07T15:34:23.106Z,6.63
2017-11-07T15:36:53.034Z,8.00
2017-11-07T15:39:22.874Z,7.93
2017-11-07T15:41:53.019Z,7.50
2017-11-07T15:44:22.876Z,7.50
2017-11-07T15:46:52.777Z,8.17
2017-11-07T15:49:22.703Z,8.00
2017-11-07T15:51:52.579Z,9.90
2017-11-07T15:54:22.446Z,10.03
2017-11-07T15:56:52.459Z,8.67
2017-11-07T15:59:22.295Z,7.90
2017-11-07T16:01:52.165Z,7.73
2017-11-07T16:04:22.522Z,9.40
2017-11-07T16:06:52.363Z,8.87
2017-11-07T16:09:22.518Z,7.90
2017-11-07T16:11:52.396Z,8.00
2017-11-07T16:14:22.235Z,7.40
2017-11-07T16:16:52.170Z,9.60
2017-11-07T16:19:22.023Z,8.40
2017-11-07T16:21:52.221Z,9.03
2017-11-07T16:24:22.412Z,8.63
2017-11-07T16:26:52.590Z,10.67
2017-11-07T16:29:22.484Z,11.63
2017-11-07T16:31:52.908Z,10.83
2017-11-07T16:34:22.903Z,9.90
2017-11-07T16:36:53.056Z,10.17
2017-11-07T16:39:22.937Z,11.20
2017-11-07T16:41:53.133Z,11.20
2017-11-07T16:44:23.083Z,10.17
2017-11-07T16:46:53.369Z,10.20
2017-11-07T16:49:23.248Z,11.07
2017-11-07T16:51:53.945Z,10.20
2017-11-07T16:54:23.813Z,9.90
2017-11-07T16:56:53.762Z,10.83
2017-11-07T16:59:23.683Z,11.73
2017-11-07T17:01:53.800Z,11.43
2017-11-07T17:04:23.656Z,11.23
2017-11-07T17:06:53.613Z,10.83
2017-11-07T17:09:23.798Z,11.70
2017-11-07T17:11:53.718Z,11.43
2017-11-07T17:14:23.595Z,10.73
2017-11-07T17:16:53.522Z,11.40
2017-11-07T17:19:23.521Z,13.40
2017-11-07T17:21:53.431Z,11.40
2017-11-07T17:24:23.281Z,13.63
2017-11-07T17:26:53.153Z,12.63
2017-11-07T17:29:23.055Z,12.10
2017-11-07T17:31:52.970Z,12.63
2017-11-07T17:34:22.876Z,13.80
2017-11-07T17:36:52.750Z,13.50
2017-11-07T17:39:22.662Z,16.17
2017-11-07T17:41:52.605Z,13.97
2017-11-07T17:44:22.505Z,14.07
2017-11-07T17:46:52.484Z,15.17
2017-11-07T17:49:23.557Z,14.37
2017-11-07T17:51:53.402Z,14.80
2017-11-07T17:54:23.367Z,14.07
2017-11-07T17:56:53.252Z,13.70
2017-11-07T17:59:23.130Z,14.13
2017-11-07T18:01:53.048Z,15.33
2017-11-07T18:04:22.901Z,15.03
2017-11-07T18:06:52.921Z,15.17
2017-11-07T18:09:22.821Z,13.77
2017-11-07T18:11:52.741Z,15.27
2017-11-07T18:14:22.613Z,14.60
2017-11-07T18:16:52.506Z,15.23
2017-11-07T18:19:22.354Z,17.70
2017-11-07T18:21:52.215Z,15.20
2017-11-07T18:24:22.102Z,16.10
2017-11-07T18:26:52.037Z,18.00
2017-11-07T18:29:21.940Z,17.47
2017-11-07T18:31:51.815Z,17.40
2017-11-07T18:34:21.862Z,17.37
2017-11-07T18:36:51.792Z,17.43
2017-11-07T18:39:21.732Z,18.13
2017-11-07T18:41:51.590Z,16.80
2017-11-07T18:44:21.486Z,14.33
2017-11-07T18:46:51.375Z,16.80
2017-11-07T18:49:21.249Z,18.60
2017-11-07T18:51:51.150Z,17.03
2017-11-07T18:54:21.012Z,18.57
2017-11-07T18:56:50.888Z,17.07
2017-11-07T18:59:20.761Z,17.60
2017-11-07T19:01:50.648Z,16.60
2017-11-07T19:04:20.509Z,18.07
2017-11-07T19:06:50.377Z,17.73
2017-11-07T19:09:21.185Z,17.37
2017-11-07T19:11:51.063Z,18.67
2017-11-07T19:14:20.964Z,17.97
2017-11-07T19:16:51.659Z,19.33
2017-11-07T19:19:21.542Z,16.53
2017-11-07T19:21:51.399Z,17.47
2017-11-07T19:24:21.277Z,16.77
2017-11-07T19:26:51.124Z,16.60
2017-11-07T19:29:20.991Z,10.83
2017-11-07T19:31:54.534Z,16.17
2017-11-07T19:34:24.585Z,17.50
2017-11-07T19:36:54.611Z,16.90
2017-11-07T19:39:24.481Z,17.90
2017-11-07T19:41:54.358Z,15.27
2017-11-07T19:44:24.267Z,15.53
2017-11-07T19:46:54.161Z,16.07
2017-11-07T19:49:24.043Z,16.60
2017-11-07T19:51:53.911Z,16.87
2017-11-07T19:54:23.911Z,17.07
2017-11-07T19:56:53.785Z,16.63
2017-11-07T19:59:23.675Z,16.43
2017-11-07T20:01:53.602Z,18.40
2017-11-07T20:04:23.482Z,17.60
2017-11-07T20:06:53.362Z,19.27
2017-11-07T20:09:23.244Z,16.30
2017-11-07T20:11:53.336Z,18.00
2017-11-07T20:14:23.768Z,18.33
2017-11-07T20:16:53.676Z,19.20
2017-11-07T20:19:23.574Z,16.80
2017-11-07T20:21:53.479Z,17.67
2017-11-07T20:24:23.344Z,16.17
2017-11-07T20:26:54.261Z,15.07
2017-11-07T20:29:24.127Z,14.50
2017-11-07T20:31:54.050Z,14.27
2017-11-07T20:34:23.934Z,13.73
2017-11-07T20:36:53.807Z,15.23
2017-11-07T20:39:23.668Z,13.47
2017-11-07T20:41:53.583Z,14.77
2017-11-07T20:44:23.437Z,13.83
2017-11-07T20:46:53.315Z,13.30
2017-11-07T20:49:23.203Z,15.33
2017-11-07T20:51:53.088Z,12.90
2017-11-07T20:54:22.992Z,12.33
2017-11-07T20:56:52.878Z,13.33
2017-11-07T20:59:22.770Z,12.50
2017-11-07T21:01:52.625Z,12.40
2017-11-07T21:04:22.613Z,11.93
2017-11-07T21:06:52.495Z,12.43
2017-11-07T21:09:22.390Z,12.17
2017-11-07T21:11:52.250Z,11.20
2017-11-07T21:14:22.133Z,11.50
2017-11-07T21:16:52.016Z,11.10
2017-11-07T21:19:21.909Z,10.57
2017-11-07T21:21:51.781Z,11.00
2017-11-07T21:24:21.707Z,11.33
2017-11-07T21:26:51.599Z,10.50
2017-11-07T21:29:21.470Z,10.37
2017-11-07T21:31:51.370Z,10.87
2017-11-07T21:34:22.997Z,11.27
2017-11-07T21:36:52.871Z,11.80
2017-11-07T21:39:22.754Z,10.93
2017-11-07T21:41:52.706Z,11.87
2017-11-07T21:44:22.590Z,10.90
2017-11-07T21:46:52.507Z,10.87
2017-11-07T21:49:22.443Z,10.33
2017-11-07T21:51:52.324Z,10.60
2017-11-07T21:54:22.208Z,10.33
2017-11-07T21:56:52.155Z,11.30
2017-11-07T21:59:22.063Z,10.80
2017-11-07T22:01:51.955Z,9.83
2017-11-07T22:04:21.842Z,10.50
2017-11-07T22:06:51.759Z,10.40
2017-11-07T22:09:21.668Z,10.33
2017-11-07T22:11:51.560Z,11.80
2017-11-07T22:14:22.248Z,9.90
2017-11-07T22:16:53.926Z,11.17
2017-11-07T22:19:23.790Z,10.63
2017-11-07T22:21:53.688Z,10.40
2017-11-07T22:24:23.565Z,10.00
2017-11-07T22:26:53.453Z,9.67
2017-11-07T22:29:23.305Z,8.93
2017-11-07T22:31:53.166Z,9.70
2017-11-07T22:34:23.048Z,9.67
2017-11-07T22:36:52.898Z,9.20
2017-11-07T22:39:22.783Z,8.33
2017-11-07T22:41:52.806Z,7.70
2017-11-07T22:44:22.797Z,9.97
2017-11-07T22:46:52.661Z,8.43
2017-11-07T22:49:22.555Z,8.37
2017-11-07T22:51:52.412Z,9.73
2017-11-07T22:54:22.294Z,8.50
2017-11-07T22:56:52.489Z,9.17
2017-11-07T22:59:22.365Z,9.40
2017-11-07T23:01:52.241Z,8.30
2017-11-07T23:04:22.098Z,8.50
2017-11-07T23:06:52.040Z,9.03
2017-11-07T23:09:21.909Z,8.23
2017-11-07T23:11:53.613Z,8.30
2017-11-07T23:14:23.472Z,9.47
2017-11-07T23:16:53.419Z,8.40
2017-11-07T23:19:23.624Z,8.90
2017-11-07T23:21:53.600Z,8.83
2017-11-07T23:24:23.579Z,7.97
2017-11-07T23:26:53.439Z,8.23
2017-11-07T23:29:23.320Z,7.83
2017-11-07T23:31:53.209Z,7.10
2017-11-07T23:34:23.055Z,7.27
2017-11-07T23:36:52.981Z,8.67
2017-11-07T23:39:22.838Z,8.87
2017-11-07T23:41:52.717Z,7.50
2017-11-07T23:44:22.553Z,7.50
2017-11-07T23:46:52.430Z,8.37
2017-11-07T23:49:22.281Z,7.07
2017-11-07T23:51:52.154Z,8.00
2017-11-07T23:54:22.075Z,8.00
2017-11-07T23:56:51.936Z,8.93
2017-11-07T23:59:21.848Z,7.93
